sensor_id;sensor_type;location;lat;lon;timestamp;temperature;humidity
9265;DHT22;4669;49.594;10.958;2023-03-23T00:02:06;12.30;99.90
9265;DHT22;4669;49.594;10.958;2023-03-23T00:07:09;12.30;99.90
9265;DHT22;4669;49.594;10.958;2023-03-23T00:12:13;12.30;99.90
9265;DHT22;4669;49.594;10.958;2023-03-23T00:17:16;12.20;99.90
9265;DHT22;4669;49.594;10.958;2023-03-23T00:22:19;12.20;99.90
9265;DHT22;4669;49.594;10.958;2023-03-23T00:27:22;12.10;99.90
9265;DHT22;4669;49.594;10.958;2023-03-23T00:32:25;12.10;99.90
9265;DHT22;4669;49.594;10.958;2023-03-23T00:37:29;12.10;99.90
9265;DHT22;4669;49.594;10.958;2023-03-23T00:42:31;12.10;99.90
9265;DHT22;4669;49.594;10.958;2023-03-23T00:47:38;12.20;99.90
9265;DHT22;4669;49.594;10.958;2023-03-23T00:52:43;12.20;99.90
9265;DHT22;4669;49.594;10.958;2023-03-23T00:57:45;12.20;99.90
9265;DHT22;4669;49.594;10.958;2023-03-23T01:02:49;12.20;99.90
9265;DHT22;4669;49.594;10.958;2023-03-23T01:07:54;12.20;99.90
9265;DHT22;4669;49.594;10.958;2023-03-23T01:12:56;12.20;99.90
9265;DHT22;4669;49.594;10.958;2023-03-23T01:17:58;12.30;99.90
9265;DHT22;4669;49.594;10.958;2023-03-23T01:23:02;12.30;99.90
9265;DHT22;4669;49.594;10.958;2023-03-23T01:28:05;12.30;99.90
9265;DHT22;4669;49.594;10.958;2023-03-23T01:33:07;12.30;99.90
9265;DHT22;4669;49.594;10.958;2023-03-23T01:38:10;12.30;99.90
9265;DHT22;4669;49.594;10.958;2023-03-23T01:43:14;12.40;99.90
9265;DHT22;4669;49.594;10.958;2023-03-23T01:48:22;12.40;99.90
9265;DHT22;4669;49.594;10.958;2023-03-23T01:53:30;12.40;99.90
9265;DHT22;4669;49.594;10.958;2023-03-23T01:58:34;12.50;99.90
9265;DHT22;4669;49.594;10.958;2023-03-23T02:03:40;12.40;99.90
9265;DHT22;4669;49.594;10.958;2023-03-23T02:08:44;12.40;99.90
9265;DHT22;4669;49.594;10.958;2023-03-23T02:13:50;12.50;99.90
9265;DHT22;4669;49.594;10.958;2023-03-23T02:18:58;12.50;99.90
9265;DHT22;4669;49.594;10.958;2023-03-23T02:24:16;12.50;99.90
9265;DHT22;4669;49.594;10.958;2023-03-23T02:29:49;12.50;99.90
9265;DHT22;4669;49.594;10.958;2023-03-23T02:34:58;12.50;99.90
9265;DHT22;4669;49.594;10.958;2023-03-23T02:40:04;12.50;99.90
9265;DHT22;4669;49.594;10.958;2023-03-23T02:45:11;12.50;99.90
9265;DHT22;4669;49.594;10.958;2023-03-23T02:50:18;12.60;99.90
9265;DHT22;4669;49.594;10.958;2023-03-23T02:55:22;12.60;99.90
9265;DHT22;4669;49.594;10.958;2023-03-23T03:00:25;12.60;99.90
9265;DHT22;4669;49.594;10.958;2023-03-23T03:05:36;12.50;99.90
9265;DHT22;4669;49.594;10.958;2023-03-23T03:10:46;12.50;99.90
9265;DHT22;4669;49.594;10.958;2023-03-23T03:15:56;12.50;99.90
9265;DHT22;4669;49.594;10.958;2023-03-23T03:21:03;12.50;99.90
9265;DHT22;4669;49.594;10.958;2023-03-23T03:26:10;12.50;99.90
9265;DHT22;4669;49.594;10.958;2023-03-23T03:31:23;12.40;99.90
9265;DHT22;4669;49.594;10.958;2023-03-23T03:36:29;12.50;99.90
9265;DHT22;4669;49.594;10.958;2023-03-23T03:41:36;12.40;99.90
9265;DHT22;4669;49.594;10.958;2023-03-23T03:46:39;12.40;99.90
9265;DHT22;4669;49.594;10.958;2023-03-23T03:51:43;12.40;99.90
9265;DHT22;4669;49.594;10.958;2023-03-23T03:56:54;12.50;99.90
9265;DHT22;4669;49.594;10.958;2023-03-23T04:02:16;12.40;99.90
9265;DHT22;4669;49.594;10.958;2023-03-23T04:07:23;12.40;99.90
9265;DHT22;4669;49.594;10.958;2023-03-23T04:12:27;12.40;99.90
9265;DHT22;4669;49.594;10.958;2023-03-23T04:17:32;12.50;99.90
9265;DHT22;4669;49.594;10.958;2023-03-23T04:22:36;12.50;99.90
9265;DHT22;4669;49.594;10.958;2023-03-23T04:27:38;12.50;99.90
9265;DHT22;4669;49.594;10.958;2023-03-23T04:32:44;12.50;99.90
9265;DHT22;4669;49.594;10.958;2023-03-23T04:37:53;12.50;99.90
9265;DHT22;4669;49.594;10.958;2023-03-23T04:42:55;12.50;99.90
9265;DHT22;4669;49.594;10.958;2023-03-23T04:48:10;12.60;99.90
9265;DHT22;4669;49.594;10.958;2023-03-23T04:53:32;12.50;99.90
9265;DHT22;4669;49.594;10.958;2023-03-23T04:58:36;12.40;99.90
9265;DHT22;4669;49.594;10.958;2023-03-23T05:04:12;12.40;99.90
9265;DHT22;4669;49.594;10.958;2023-03-23T05:09:22;12.30;99.90
9265;DHT22;4669;49.594;10.958;2023-03-23T05:14:24;12.40;99.90
9265;DHT22;4669;49.594;10.958;2023-03-23T05:19:39;12.40;99.90
9265;DHT22;4669;49.594;10.958;2023-03-23T05:25:03;12.40;99.90
9265;DHT22;4669;49.594;10.958;2023-03-23T05:30:09;12.40;99.90
9265;DHT22;4669;49.594;10.958;2023-03-23T05:35:14;12.30;99.90
9265;DHT22;4669;49.594;10.958;2023-03-23T05:40:18;12.30;99.90
9265;DHT22;4669;49.594;10.958;2023-03-23T05:45:28;12.40;99.90
9265;DHT22;4669;49.594;10.958;2023-03-23T05:50:31;12.40;99.90
9265;DHT22;4669;49.594;10.958;2023-03-23T05:55:35;12.40;99.90
9265;DHT22;4669;49.594;10.958;2023-03-23T06:00:47;12.40;99.90
9265;DHT22;4669;49.594;10.958;2023-03-23T06:05:58;12.50;99.90
9265;DHT22;4669;49.594;10.958;2023-03-23T06:11:09;12.50;99.90
9265;DHT22;4669;49.594;10.958;2023-03-23T06:16:19;12.50;99.90
9265;DHT22;4669;49.594;10.958;2023-03-23T06:21:31;12.60;99.90
9265;DHT22;4669;49.594;10.958;2023-03-23T06:26:39;12.60;99.90
9265;DHT22;4669;49.594;10.958;2023-03-23T06:31:52;12.70;99.90
9265;DHT22;4669;49.594;10.958;2023-03-23T06:36:55;12.70;99.90
9265;DHT22;4669;49.594;10.958;2023-03-23T06:42:10;12.70;99.90
9265;DHT22;4669;49.594;10.958;2023-03-23T06:47:18;12.80;99.90
9265;DHT22;4669;49.594;10.958;2023-03-23T06:52:22;12.80;99.90
9265;DHT22;4669;49.594;10.958;2023-03-23T06:57:26;12.90;99.90
9265;DHT22;4669;49.594;10.958;2023-03-23T07:02:30;12.90;99.90
9265;DHT22;4669;49.594;10.958;2023-03-23T07:07:32;12.90;99.90
9265;DHT22;4669;49.594;10.958;2023-03-23T07:12:56;13.00;99.90
9265;DHT22;4669;49.594;10.958;2023-03-23T07:18:00;12.90;99.90
9265;DHT22;4669;49.594;10.958;2023-03-23T07:23:11;13.00;99.90
9265;DHT22;4669;49.594;10.958;2023-03-23T07:28:19;13.00;99.90
9265;DHT22;4669;49.594;10.958;2023-03-23T07:33:23;13.10;99.90
9265;DHT22;4669;49.594;10.958;2023-03-23T07:38:26;13.10;99.90
9265;DHT22;4669;49.594;10.958;2023-03-23T07:43:30;13.20;99.90
9265;DHT22;4669;49.594;10.958;2023-03-23T07:48:45;13.30;99.90
9265;DHT22;4669;49.594;10.958;2023-03-23T07:53:48;13.40;99.90
9265;DHT22;4669;49.594;10.958;2023-03-23T07:59:27;13.40;99.90
9265;DHT22;4669;49.594;10.958;2023-03-23T08:04:32;13.50;99.90
9265;DHT22;4669;49.594;10.958;2023-03-23T08:10:11;13.50;99.90
9265;DHT22;4669;49.594;10.958;2023-03-23T08:15:27;13.50;99.90
9265;DHT22;4669;49.594;10.958;2023-03-23T08:20:38;13.50;99.90
9265;DHT22;4669;49.594;10.958;2023-03-23T08:26:07;13.50;99.90
9265;DHT22;4669;49.594;10.958;2023-03-23T08:31:35;13.50;99.90
9265;DHT22;4669;49.594;10.958;2023-03-23T08:36:44;13.40;99.90
9265;DHT22;4669;49.594;10.958;2023-03-23T08:42:05;13.50;99.90
9265;DHT22;4669;49.594;10.958;2023-03-23T08:47:27;13.50;99.90
9265;DHT22;4669;49.594;10.958;2023-03-23T08:53:05;13.60;99.90
9265;DHT22;4669;49.594;10.958;2023-03-23T08:58:22;13.60;99.90
9265;DHT22;4669;49.594;10.958;2023-03-23T09:03:45;13.60;99.90
9265;DHT22;4669;49.594;10.958;2023-03-23T09:09:07;13.80;99.90
9265;DHT22;4669;49.594;10.958;2023-03-23T09:14:10;13.90;99.90
9265;DHT22;4669;49.594;10.958;2023-03-23T09:19:14;13.90;99.90
9265;DHT22;4669;49.594;10.958;2023-03-23T09:24:16;13.90;99.90
9265;DHT22;4669;49.594;10.958;2023-03-23T09:29:19;14.00;99.90
9265;DHT22;4669;49.594;10.958;2023-03-23T09:34:23;14.10;99.90
9265;DHT22;4669;49.594;10.958;2023-03-23T09:39:25;14.20;99.90
9265;DHT22;4669;49.594;10.958;2023-03-23T09:44:34;14.30;99.90
9265;DHT22;4669;49.594;10.958;2023-03-23T09:49:42;14.40;99.90
9265;DHT22;4669;49.594;10.958;2023-03-23T09:54:46;14.50;99.90
9265;DHT22;4669;49.594;10.958;2023-03-23T09:59:56;14.50;99.90
9265;DHT22;4669;49.594;10.958;2023-03-23T10:05:22;14.60;99.90
9265;DHT22;4669;49.594;10.958;2023-03-23T10:10:31;14.60;99.90
9265;DHT22;4669;49.594;10.958;2023-03-23T10:15:38;14.50;99.90
9265;DHT22;4669;49.594;10.958;2023-03-23T10:20:48;14.50;99.90
9265;DHT22;4669;49.594;10.958;2023-03-23T10:25:52;14.50;99.90
9265;DHT22;4669;49.594;10.958;2023-03-23T10:30:57;14.50;99.90
9265;DHT22;4669;49.594;10.958;2023-03-23T10:36:08;14.50;99.90
9265;DHT22;4669;49.594;10.958;2023-03-23T10:41:15;14.60;99.90
9265;DHT22;4669;49.594;10.958;2023-03-23T10:46:26;14.60;99.90
9265;DHT22;4669;49.594;10.958;2023-03-23T10:51:34;14.80;99.90
9265;DHT22;4669;49.594;10.958;2023-03-23T10:56:38;14.70;99.90
9265;DHT22;4669;49.594;10.958;2023-03-23T11:01:43;14.50;99.90
9265;DHT22;4669;49.594;10.958;2023-03-23T11:06:51;14.40;99.90
9265;DHT22;4669;49.594;10.958;2023-03-23T11:11:55;14.30;99.90
9265;DHT22;4669;49.594;10.958;2023-03-23T11:16:58;14.40;99.90
9265;DHT22;4669;49.594;10.958;2023-03-23T11:22:08;14.40;99.90
9265;DHT22;4669;49.594;10.958;2023-03-23T11:27:15;14.30;99.90
9265;DHT22;4669;49.594;10.958;2023-03-23T11:32:18;14.30;99.90
9265;DHT22;4669;49.594;10.958;2023-03-23T11:37:27;14.40;99.90
9265;DHT22;4669;49.594;10.958;2023-03-23T11:42:36;14.40;99.90
9265;DHT22;4669;49.594;10.958;2023-03-23T11:47:42;14.40;99.90
9265;DHT22;4669;49.594;10.958;2023-03-23T11:52:51;14.50;99.90
9265;DHT22;4669;49.594;10.958;2023-03-23T11:57:55;14.50;99.90
9265;DHT22;4669;49.594;10.958;2023-03-23T12:03:08;14.50;99.90
9265;DHT22;4669;49.594;10.958;2023-03-23T12:08:34;14.60;99.90
9265;DHT22;4669;49.594;10.958;2023-03-23T12:13:46;14.60;99.90
9265;DHT22;4669;49.594;10.958;2023-03-23T12:19:00;14.70;99.90
9265;DHT22;4669;49.594;10.958;2023-03-23T12:24:12;14.70;99.90
9265;DHT22;4669;49.594;10.958;2023-03-23T12:29:39;14.80;99.90
9265;DHT22;4669;49.594;10.958;2023-03-23T12:34:49;14.90;99.90
9265;DHT22;4669;49.594;10.958;2023-03-23T12:40:07;14.90;99.90
9265;DHT22;4669;49.594;10.958;2023-03-23T12:45:19;14.90;99.90
9265;DHT22;4669;49.594;10.958;2023-03-23T12:50:28;14.90;99.90
9265;DHT22;4669;49.594;10.958;2023-03-23T12:55:42;14.90;99.90
9265;DHT22;4669;49.594;10.958;2023-03-23T13:00:54;15.00;99.90
9265;DHT22;4669;49.594;10.958;2023-03-23T13:06:04;15.00;99.90
9265;DHT22;4669;49.594;10.958;2023-03-23T13:11:14;15.10;99.90
9265;DHT22;4669;49.594;10.958;2023-03-23T13:16:26;15.00;99.90
9265;DHT22;4669;49.594;10.958;2023-03-23T13:21:31;15.10;99.90
9265;DHT22;4669;49.594;10.958;2023-03-23T13:26:39;15.10;99.90
9265;DHT22;4669;49.594;10.958;2023-03-23T13:31:43;15.20;99.90
9265;DHT22;4669;49.594;10.958;2023-03-23T13:36:53;15.30;99.90
9265;DHT22;4669;49.594;10.958;2023-03-23T13:42:04;15.50;99.90
9265;DHT22;4669;49.594;10.958;2023-03-23T13:47:08;15.60;99.90
9265;DHT22;4669;49.594;10.958;2023-03-23T13:52:22;15.90;99.90
9265;DHT22;4669;49.594;10.958;2023-03-23T13:57:36;16.00;99.90
9265;DHT22;4669;49.594;10.958;2023-03-23T14:02:40;15.80;99.90
9265;DHT22;4669;49.594;10.958;2023-03-23T14:07:57;15.70;99.90
9265;DHT22;4669;49.594;10.958;2023-03-23T14:13:03;15.50;99.90
9265;DHT22;4669;49.594;10.958;2023-03-23T14:18:06;15.50;99.90
9265;DHT22;4669;49.594;10.958;2023-03-23T14:23:15;15.50;99.90
9265;DHT22;4669;49.594;10.958;2023-03-23T14:28:20;15.50;99.90
9265;DHT22;4669;49.594;10.958;2023-03-23T14:33:24;15.60;99.90
9265;DHT22;4669;49.594;10.958;2023-03-23T14:38:27;15.50;99.90
9265;DHT22;4669;49.594;10.958;2023-03-23T14:43:34;15.50;99.90
9265;DHT22;4669;49.594;10.958;2023-03-23T14:48:38;15.40;99.90
9265;DHT22;4669;49.594;10.958;2023-03-23T14:53:41;15.40;99.90
9265;DHT22;4669;49.594;10.958;2023-03-23T14:58:46;15.40;99.90
9265;DHT22;4669;49.594;10.958;2023-03-23T15:03:52;15.30;99.90
9265;DHT22;4669;49.594;10.958;2023-03-23T15:08:56;15.30;99.90
9265;DHT22;4669;49.594;10.958;2023-03-23T15:14:09;15.20;99.90
9265;DHT22;4669;49.594;10.958;2023-03-23T15:19:16;15.30;99.90
9265;DHT22;4669;49.594;10.958;2023-03-23T15:24:24;15.40;99.90
9265;DHT22;4669;49.594;10.958;2023-03-23T15:29:28;15.40;99.90
9265;DHT22;4669;49.594;10.958;2023-03-23T15:34:33;15.40;99.90
9265;DHT22;4669;49.594;10.958;2023-03-23T15:39:41;15.40;99.90
9265;DHT22;4669;49.594;10.958;2023-03-23T15:44:55;15.30;99.90
9265;DHT22;4669;49.594;10.958;2023-03-23T15:50:04;15.30;99.90
9265;DHT22;4669;49.594;10.958;2023-03-23T15:55:20;15.30;99.90
9265;DHT22;4669;49.594;10.958;2023-03-23T16:00:26;15.30;99.90
9265;DHT22;4669;49.594;10.958;2023-03-23T16:05:28;15.30;99.90
9265;DHT22;4669;49.594;10.958;2023-03-23T16:10:30;15.30;99.90
9265;DHT22;4669;49.594;10.958;2023-03-23T16:15:34;15.20;99.90
9265;DHT22;4669;49.594;10.958;2023-03-23T16:20:36;15.20;99.90
9265;DHT22;4669;49.594;10.958;2023-03-23T16:25:38;15.10;99.90
9265;DHT22;4669;49.594;10.958;2023-03-23T16:30:42;15.10;99.90
9265;DHT22;4669;49.594;10.958;2023-03-23T16:35:44;15.00;99.90
9265;DHT22;4669;49.594;10.958;2023-03-23T16:40:48;14.90;99.90
9265;DHT22;4669;49.594;10.958;2023-03-23T16:45:54;14.90;99.90
9265;DHT22;4669;49.594;10.958;2023-03-23T16:50:56;14.90;99.90
9265;DHT22;4669;49.594;10.958;2023-03-23T16:55:58;14.90;99.90
9265;DHT22;4669;49.594;10.958;2023-03-23T17:01:02;14.80;99.90
9265;DHT22;4669;49.594;10.958;2023-03-23T17:06:06;14.80;99.90
9265;DHT22;4669;49.594;10.958;2023-03-23T17:11:09;14.70;99.90
9265;DHT22;4669;49.594;10.958;2023-03-23T17:16:12;14.70;99.90
9265;DHT22;4669;49.594;10.958;2023-03-23T17:21:14;14.50;99.90
9265;DHT22;4669;49.594;10.958;2023-03-23T17:26:16;14.50;99.90
9265;DHT22;4669;49.594;10.958;2023-03-23T17:31:20;14.40;99.90
9265;DHT22;4669;49.594;10.958;2023-03-23T17:36:22;14.40;99.90
9265;DHT22;4669;49.594;10.958;2023-03-23T17:41:24;14.40;99.90
9265;DHT22;4669;49.594;10.958;2023-03-23T17:46:28;14.30;99.90
9265;DHT22;4669;49.594;10.958;2023-03-23T17:51:30;14.30;99.90
9265;DHT22;4669;49.594;10.958;2023-03-23T17:56:32;14.20;99.90
9265;DHT22;4669;49.594;10.958;2023-03-23T18:01:35;14.20;99.90
9265;DHT22;4669;49.594;10.958;2023-03-23T18:06:37;14.10;99.90
9265;DHT22;4669;49.594;10.958;2023-03-23T18:11:40;14.10;99.90
9265;DHT22;4669;49.594;10.958;2023-03-23T18:16:43;14.10;99.90
9265;DHT22;4669;49.594;10.958;2023-03-23T18:21:45;14.10;99.90
9265;DHT22;4669;49.594;10.958;2023-03-23T18:26:47;14.00;99.90
9265;DHT22;4669;49.594;10.958;2023-03-23T18:31:51;14.00;99.90
9265;DHT22;4669;49.594;10.958;2023-03-23T18:36:53;13.90;99.90
9265;DHT22;4669;49.594;10.958;2023-03-23T18:41:55;13.90;99.90
9265;DHT22;4669;49.594;10.958;2023-03-23T18:46:58;13.80;99.90
9265;DHT22;4669;49.594;10.958;2023-03-23T18:52:01;13.80;99.90
9265;DHT22;4669;49.594;10.958;2023-03-23T18:57:03;13.80;99.90
9265;DHT22;4669;49.594;10.958;2023-03-23T19:02:06;13.70;99.90
9265;DHT22;4669;49.594;10.958;2023-03-23T19:07:08;13.70;99.90
9265;DHT22;4669;49.594;10.958;2023-03-23T19:12:13;13.70;99.90
9265;DHT22;4669;49.594;10.958;2023-03-23T19:17:16;13.60;99.90
9265;DHT22;4669;49.594;10.958;2023-03-23T19:22:18;13.60;99.90
9265;DHT22;4669;49.594;10.958;2023-03-23T19:27:20;13.50;99.90
9265;DHT22;4669;49.594;10.958;2023-03-23T19:32:24;13.50;99.90
9265;DHT22;4669;49.594;10.958;2023-03-23T19:37:26;13.50;99.90
9265;DHT22;4669;49.594;10.958;2023-03-23T19:42:28;13.40;99.90
9265;DHT22;4669;49.594;10.958;2023-03-23T19:47:31;13.50;99.90
9265;DHT22;4669;49.594;10.958;2023-03-23T19:52:34;13.50;99.90
9265;DHT22;4669;49.594;10.958;2023-03-23T19:57:36;13.40;99.90
9265;DHT22;4669;49.594;10.958;2023-03-23T20:02:40;13.50;99.90
9265;DHT22;4669;49.594;10.958;2023-03-23T20:07:42;13.40;99.90
9265;DHT22;4669;49.594;10.958;2023-03-23T20:12:44;13.40;99.90
9265;DHT22;4669;49.594;10.958;2023-03-23T20:17:47;13.40;99.90
9265;DHT22;4669;49.594;10.958;2023-03-23T20:22:49;13.40;99.90
9265;DHT22;4669;49.594;10.958;2023-03-23T20:27:52;13.40;99.90
9265;DHT22;4669;49.594;10.958;2023-03-23T20:32:55;13.30;99.90
9265;DHT22;4669;49.594;10.958;2023-03-23T20:38:00;13.30;99.90
9265;DHT22;4669;49.594;10.958;2023-03-23T20:43:02;13.30;99.90
9265;DHT22;4669;49.594;10.958;2023-03-23T20:48:05;13.30;99.90
9265;DHT22;4669;49.594;10.958;2023-03-23T20:53:09;13.30;99.90
9265;DHT22;4669;49.594;10.958;2023-03-23T20:58:11;13.40;99.90
9265;DHT22;4669;49.594;10.958;2023-03-23T21:03:15;13.40;99.90
9265;DHT22;4669;49.594;10.958;2023-03-23T21:08:18;13.30;99.90
9265;DHT22;4669;49.594;10.958;2023-03-23T21:13:20;13.30;99.90
9265;DHT22;4669;49.594;10.958;2023-03-23T21:18:24;13.30;99.90
9265;DHT22;4669;49.594;10.958;2023-03-23T21:23:26;13.30;99.90
9265;DHT22;4669;49.594;10.958;2023-03-23T21:28:29;13.40;99.90
9265;DHT22;4669;49.594;10.958;2023-03-23T21:33:32;13.40;99.90
9265;DHT22;4669;49.594;10.958;2023-03-23T21:38:35;13.40;99.90
9265;DHT22;4669;49.594;10.958;2023-03-23T21:43:39;13.30;99.90
9265;DHT22;4669;49.594;10.958;2023-03-23T21:48:48;13.30;99.90
9265;DHT22;4669;49.594;10.958;2023-03-23T21:53:51;13.40;99.90
9265;DHT22;4669;49.594;10.958;2023-03-23T21:58:57;13.40;99.90
9265;DHT22;4669;49.594;10.958;2023-03-23T22:04:02;13.40;99.90
9265;DHT22;4669;49.594;10.958;2023-03-23T22:09:04;13.40;99.90
9265;DHT22;4669;49.594;10.958;2023-03-23T22:14:07;13.50;99.90
9265;DHT22;4669;49.594;10.958;2023-03-23T22:19:10;13.50;99.90
9265;DHT22;4669;49.594;10.958;2023-03-23T22:24:12;13.50;99.90
9265;DHT22;4669;49.594;10.958;2023-03-23T22:29:14;13.50;99.90
9265;DHT22;4669;49.594;10.958;2023-03-23T22:34:18;13.40;99.90
9265;DHT22;4669;49.594;10.958;2023-03-23T22:39:21;13.40;99.90
9265;DHT22;4669;49.594;10.958;2023-03-23T22:44:23;13.40;99.90
9265;DHT22;4669;49.594;10.958;2023-03-23T22:49:27;13.40;99.90
9265;DHT22;4669;49.594;10.958;2023-03-23T22:54:29;13.40;99.90
9265;DHT22;4669;49.594;10.958;2023-03-23T22:59:31;13.40;99.90
